Aérodrome :
LOGIN :

S'inscrire | Disclaimer

   EN    FR    IT 

 










Légende :    VFR   VFR Marginal   IFR   IFR Intensif   IFR Très Intensif
Visi : 
Plafond : 
>= 8 km
>= 3000ft
5 à 8 km
1000 à 3000 ft
1500m à 5 km
500 à 1000 ft
800 à 1500m
200 à 500 ft
< 800m
< 200 ft
Symboles :   Orages  Brouillard  Fortes neiges  Fortes précipitations  Vent > 20 kt
SIGMETs :   Divers  Orages  Givrage  Turbulence  Onde Orograph.  Cendres Volcan.






- Altitude de l'aérodrome : 117 ft
- Code IATA : NWI


EGSH - Norwich

DERNIER METAR :
  • 282320Z AUTO 25012KT 9999 NCD 03/01 Q0999

METARs EXPIRÉS :
  • 282250Z AUTO 25013KT 9999 NCD 03/01 Q0998
  • 282220Z AUTO 25013KT 9999 NCD 03/01 Q0998
  • 282150Z AUTO 25014KT 9999 NCD 03/01 Q0998
  • 282120Z AUTO 25016KT 9999 NCD 04/01 Q0997
  • 282050Z 25013KT 9999 FEW041 04/01 Q0997

TAF TAF EGSH
Valide du 28 à 21h jusqu'au 29 à 00h UTC


281958Z 2821/2824 24012KT 9999 FEW040
PROB30
TEMPO 2821/2824 27015G25KT
ATIS : +44 1603 420 640



MET'MAP, la Météo Aéronautique d'un coup d'oeil ! - Copyright ORBIFLY Décembre 2007 - Disclaimer

ORBIFLY MET'MAP TEAM :

Programmation & Développement : Alexandra Zaïnal
Sur une idée originale de : Baudouin d'Aumeries
Assistance à la programmation : Marc-Olivier Méhu
Soutien technique & logistique : Manuel Goepfert

Contact : metmap@orbifly.com




SOURCES & CREDITS :

   NOAA